createdAt,value
2022-12-19T00:03:26.203Z,-7.64
2022-12-19T00:08:26.025Z,-7.50
2022-12-19T00:13:25.965Z,-7.50
2022-12-19T00:18:25.906Z,-7.39
2022-12-19T00:23:25.856Z,-7.26
2022-12-19T00:28:25.793Z,-7.07
2022-12-19T00:33:25.741Z,-7.11
2022-12-19T00:38:25.684Z,-7.07
2022-12-19T00:43:25.624Z,-7.03
2022-12-19T00:48:25.577Z,-7.01
2022-12-19T00:53:25.513Z,-6.97
2022-12-19T00:58:25.454Z,-6.87
2022-12-19T01:03:25.392Z,-6.86
2022-12-19T01:08:25.348Z,-6.68
2022-12-19T01:13:25.271Z,-6.59
2022-12-19T01:18:25.245Z,-6.45
2022-12-19T01:23:25.162Z,-6.45
2022-12-19T01:28:25.116Z,-6.32
2022-12-19T01:33:25.056Z,-6.28
2022-12-19T01:38:24.997Z,-6.32
2022-12-19T01:43:24.940Z,-6.46
2022-12-19T01:48:24.876Z,-6.47
2022-12-19T01:53:24.808Z,-6.43
2022-12-19T01:58:24.724Z,-6.39
2022-12-19T02:03:24.707Z,-6.32
2022-12-19T02:08:24.608Z,-6.18
2022-12-19T02:13:24.548Z,-6.13
2022-12-19T02:18:24.500Z,-6.08
2022-12-19T02:23:24.432Z,-6.10
2022-12-19T02:28:24.387Z,-6.11
2022-12-19T02:33:24.331Z,-6.14
2022-12-19T02:38:24.278Z,-6.10
2022-12-19T02:43:24.212Z,-6.13
2022-12-19T02:48:24.163Z,-6.16
2022-12-19T02:53:24.299Z,-6.11
2022-12-19T02:58:24.072Z,-6.17
2022-12-19T03:03:24.011Z,-6.32
2022-12-19T03:08:23.941Z,-6.29
2022-12-19T03:13:23.885Z,-6.17
2022-12-19T03:18:23.865Z,-6.17
2022-12-19T03:23:23.782Z,-6.10
2022-12-19T03:28:23.750Z,-6.16
2022-12-19T03:33:23.654Z,-6.18
2022-12-19T03:38:23.599Z,-6.13
2022-12-19T03:43:23.541Z,-6.11
2022-12-19T03:48:23.506Z,-6.10
2022-12-19T03:53:23.427Z,-6.08
2022-12-19T03:58:23.369Z,-6.08
2022-12-19T04:03:23.360Z,-5.92
2022-12-19T04:08:23.263Z,-5.95
2022-12-19T04:13:23.193Z,-5.90
2022-12-19T04:18:23.147Z,-5.90
2022-12-19T04:23:23.098Z,-5.89
2022-12-19T04:28:23.034Z,-5.90
2022-12-19T04:33:22.962Z,-5.79
2022-12-19T04:38:22.913Z,-5.88
2022-12-19T04:43:22.851Z,-5.79
2022-12-19T04:48:22.810Z,-5.79
2022-12-19T04:53:22.740Z,-5.74
2022-12-19T04:58:22.679Z,-5.68
2022-12-19T05:03:22.636Z,-5.54
2022-12-19T05:08:22.558Z,-5.49
2022-12-19T05:13:22.501Z,-5.36
2022-12-19T05:18:22.454Z,-5.28
2022-12-19T05:23:22.385Z,-5.35
2022-12-19T05:28:22.345Z,-5.35
2022-12-19T05:33:22.254Z,-5.28
2022-12-19T05:38:22.232Z,-5.36
2022-12-19T05:43:22.150Z,-5.35
2022-12-19T05:48:22.091Z,-5.28
2022-12-19T05:53:25.958Z,-5.21
2022-12-19T05:58:21.972Z,-5.22
2022-12-19T06:03:21.972Z,-5.22
2022-12-19T06:08:21.855Z,-5.10
2022-12-19T06:13:25.017Z,-5.03
2022-12-19T06:18:21.745Z,-4.95
2022-12-19T06:23:21.673Z,-4.85
2022-12-19T06:28:21.615Z,-4.82
2022-12-19T06:33:21.564Z,-4.87
2022-12-19T06:38:21.501Z,-4.89
2022-12-19T06:43:21.446Z,-5.02
2022-12-19T06:48:21.385Z,-4.95
2022-12-19T06:53:21.329Z,-4.85
2022-12-19T06:58:24.211Z,-4.73
2022-12-19T07:03:21.202Z,-4.56
2022-12-19T07:08:21.152Z,-4.45
2022-12-19T07:13:21.079Z,-4.59
2022-12-19T07:18:21.030Z,-4.59
2022-12-19T07:23:20.968Z,-4.59
2022-12-19T07:28:20.928Z,-4.54
2022-12-19T07:33:21.979Z,-4.46
2022-12-19T07:38:20.799Z,-4.41
2022-12-19T07:43:20.733Z,-4.30
2022-12-19T07:48:20.680Z,-4.12
2022-12-19T07:53:20.627Z,-4.05
2022-12-19T07:58:20.875Z,-3.96
2022-12-19T08:03:20.561Z,-3.96
2022-12-19T08:08:20.444Z,-3.91
2022-12-19T08:13:20.384Z,-3.84
2022-12-19T08:18:20.345Z,-3.65
2022-12-19T08:23:20.274Z,-3.79
2022-12-19T08:28:20.213Z,-3.79
2022-12-19T08:33:20.154Z,-3.72
2022-12-19T08:38:20.092Z,-3.55
2022-12-19T08:43:20.042Z,-3.48
2022-12-19T08:48:19.983Z,-3.34
2022-12-19T08:53:25.867Z,-3.24
2022-12-19T08:58:20.873Z,-3.06
2022-12-19T09:03:19.959Z,-2.92
2022-12-19T09:08:19.762Z,-2.85
2022-12-19T09:13:19.682Z,-2.80
2022-12-19T09:18:19.643Z,-2.77
2022-12-19T09:23:19.571Z,-2.80
2022-12-19T09:28:27.847Z,-2.82
2022-12-19T09:33:20.470Z,-2.70
2022-12-19T09:38:19.371Z,-2.52
2022-12-19T09:43:19.316Z,-2.46
2022-12-19T09:48:24.410Z,-2.34
2022-12-19T09:53:20.222Z,-2.29
2022-12-19T09:58:19.160Z,-2.18
2022-12-19T10:03:19.260Z,-2.14
2022-12-19T10:08:19.044Z,-2.11
2022-12-19T10:13:18.960Z,-1.96
2022-12-19T10:18:18.919Z,-1.76
2022-12-19T10:23:18.869Z,-1.64
2022-12-19T10:28:18.814Z,-1.57
2022-12-19T10:33:20.592Z,-1.47
2022-12-19T10:38:18.698Z,-1.43
2022-12-19T10:43:27.272Z,-1.41
2022-12-19T10:48:19.724Z,-1.36
2022-12-19T10:53:18.497Z,-1.22
2022-12-19T10:58:18.466Z,-1.05
2022-12-19T11:03:19.377Z,-1.00
2022-12-19T11:08:18.329Z,-0.76
2022-12-19T11:19:13.472Z,-0.73
2022-12-19T11:26:43.651Z,-0.57
2022-12-19T11:29:54.951Z,-0.21
2022-12-19T11:30:05.777Z,-0.40
2022-12-19T11:33:19.189Z,0.05
2022-12-19T11:38:17.956Z,0.15
2022-12-19T11:48:18.849Z,0.44
2022-12-19T11:53:19.472Z,0.50
2022-12-19T11:58:17.740Z,0.66
2022-12-19T12:03:17.716Z,0.84
2022-12-19T12:10:42.225Z,0.90
2022-12-19T12:21:46.700Z,1.12
2022-12-19T12:31:07.884Z,1.18
2022-12-19T12:31:18.281Z,1.16
2022-12-19T12:31:40.239Z,1.12
2022-12-19T12:35:33.637Z,1.12
2022-12-19T12:38:25.020Z,1.34
2022-12-19T12:43:18.173Z,1.41
2022-12-19T12:48:17.124Z,1.57
2022-12-19T12:53:17.058Z,1.63
2022-12-19T12:58:20.820Z,1.38
2022-12-19T13:03:17.965Z,1.28
2022-12-19T13:08:16.879Z,1.31
2022-12-19T13:13:22.524Z,1.34
2022-12-19T13:18:17.755Z,1.30
2022-12-19T13:23:16.693Z,1.34
2022-12-19T13:28:16.643Z,1.24
2022-12-19T13:33:16.569Z,1.17
2022-12-19T13:40:00.347Z,1.18
2022-12-19T13:43:17.440Z,1.18
2022-12-19T13:48:16.394Z,1.18
2022-12-19T13:53:16.332Z,1.21
2022-12-19T13:58:16.263Z,1.09
2022-12-19T14:03:16.359Z,1.21
2022-12-19T14:08:16.147Z,1.21
2022-12-19T14:13:36.918Z,1.21
2022-12-19T14:18:41.905Z,1.10
2022-12-19T14:23:16.966Z,1.09
2022-12-19T14:28:29.082Z,1.10
2022-12-19T14:33:44.838Z,1.12
2022-12-19T14:39:22.152Z,1.20
2022-12-19T14:43:56.904Z,1.17
2022-12-19T14:54:08.207Z,1.21
2022-12-19T14:54:31.519Z,1.18
2022-12-19T14:58:52.324Z,1.24
2022-12-19T15:03:16.648Z,1.10
2022-12-19T15:08:15.422Z,1.18
2022-12-19T15:14:46.907Z,1.18
2022-12-19T15:18:16.289Z,1.26
2022-12-19T15:23:21.487Z,1.27
2022-12-19T15:28:16.174Z,1.18
2022-12-19T15:33:15.122Z,1.10
2022-12-19T15:38:15.052Z,1.00
2022-12-19T15:43:53.036Z,0.96
2022-12-19T15:48:15.962Z,0.91
2022-12-19T15:53:22.317Z,0.87
2022-12-19T15:58:15.834Z,0.84
2022-12-19T16:03:23.399Z,0.76
2022-12-19T16:08:15.707Z,0.76
2022-12-19T16:13:14.643Z,0.81
2022-12-19T16:18:14.566Z,0.81
2022-12-19T16:23:14.538Z,0.82
2022-12-19T16:28:14.780Z,0.80
2022-12-19T16:33:14.380Z,0.76
2022-12-19T16:38:14.327Z,0.82
2022-12-19T16:43:14.310Z,0.92
2022-12-19T16:48:14.212Z,0.80
2022-12-19T16:53:14.151Z,0.82
2022-12-19T16:58:14.089Z,0.73
2022-12-19T17:03:14.110Z,0.66
2022-12-19T17:08:13.966Z,0.55
2022-12-19T17:13:13.897Z,0.62
2022-12-19T17:18:13.828Z,0.50
2022-12-19T17:23:13.786Z,0.43
2022-12-19T17:28:13.706Z,0.41
2022-12-19T17:33:13.656Z,0.35
2022-12-19T17:38:13.593Z,0.30
2022-12-19T17:43:13.562Z,0.32
2022-12-19T17:48:13.475Z,0.29
2022-12-19T17:53:13.415Z,0.30
2022-12-19T17:58:13.350Z,0.33
2022-12-19T18:03:13.478Z,0.32
2022-12-19T18:08:13.229Z,0.30
2022-12-19T18:13:13.186Z,0.25
2022-12-19T18:18:13.107Z,0.22
2022-12-19T18:23:13.046Z,0.26
2022-12-19T18:28:13.014Z,0.25
2022-12-19T18:33:12.924Z,0.26
2022-12-19T18:38:12.875Z,0.29
2022-12-19T18:43:13.114Z,0.17
2022-12-19T18:48:12.769Z,0.27
2022-12-19T18:53:12.683Z,0.20
2022-12-19T18:58:12.645Z,0.14
2022-12-19T19:03:12.781Z,0.15
2022-12-19T19:08:12.502Z,0.17
2022-12-19T19:13:12.462Z,0.09
2022-12-19T19:18:12.383Z,0.07
2022-12-19T19:23:12.335Z,0.12
2022-12-19T19:28:12.264Z,0.14
2022-12-19T19:33:12.219Z,0.09
2022-12-19T19:38:12.146Z,0.02
2022-12-19T19:43:12.095Z,0.00
2022-12-19T19:48:12.035Z,0.11
2022-12-19T19:53:11.966Z,0.07
2022-12-19T19:58:11.912Z,0.09
2022-12-19T20:03:16.815Z,0.09
2022-12-19T20:08:12.801Z,0.05
2022-12-19T20:13:11.780Z,-0.14
2022-12-19T20:18:11.669Z,-0.25
2022-12-19T20:23:11.613Z,-0.24
2022-12-19T20:28:11.564Z,-0.27
2022-12-19T20:33:11.501Z,-0.40
2022-12-19T20:38:11.431Z,-0.57
2022-12-19T20:43:11.399Z,-0.75
2022-12-19T20:48:11.311Z,-0.85
2022-12-19T20:53:11.257Z,-1.07
2022-12-19T20:58:11.193Z,-1.34
2022-12-19T21:03:31.777Z,-1.49
2022-12-19T21:08:12.079Z,-1.59
2022-12-19T21:13:11.010Z,-1.62
2022-12-19T21:18:10.957Z,-1.78
2022-12-19T21:23:10.889Z,-1.75
2022-12-19T21:28:10.829Z,-1.72
2022-12-19T21:33:10.779Z,-1.72
2022-12-19T21:38:10.710Z,-1.73
2022-12-19T21:43:12.273Z,-1.69
2022-12-19T21:48:10.589Z,-1.72
2022-12-19T21:53:10.539Z,-1.59
2022-12-19T21:58:10.472Z,-1.55
2022-12-19T22:03:15.219Z,-1.44
2022-12-19T22:08:11.355Z,-1.41
2022-12-19T22:13:10.302Z,-1.36
2022-12-19T22:18:10.226Z,-1.25
2022-12-19T22:23:13.369Z,-1.22
2022-12-19T22:28:10.116Z,-1.19
2022-12-19T22:33:10.058Z,-1.19
2022-12-19T22:38:09.994Z,-1.08
2022-12-19T22:43:09.950Z,-1.10
2022-12-19T22:48:09.890Z,-1.13
2022-12-19T22:53:12.944Z,-1.05
2022-12-19T22:58:09.753Z,-1.05
2022-12-19T23:03:09.861Z,-1.00
2022-12-19T23:08:09.645Z,-1.00
2022-12-19T23:13:09.573Z,-0.95
2022-12-19T23:18:09.515Z,-0.89
2022-12-19T23:23:09.460Z,-0.90
2022-12-19T23:28:09.387Z,-0.85
2022-12-19T23:33:09.343Z,-0.90
2022-12-19T23:38:09.273Z,-0.82
2022-12-19T23:43:09.224Z,-0.85
2022-12-19T23:48:09.153Z,-0.79
2022-12-19T23:53:09.096Z,-0.76
2022-12-19T23:58:14.557Z,-0.66
